sensor_id;sensor_type;location;lat;lon;timestamp;pressure;altitude;pressure_sealevel;temperature;humidity
49515;BME280;35415;47.870;16.058;2023-06-10T00:01:34;97017.28;;;14.60;100.00
49515;BME280;35415;47.870;16.058;2023-06-10T00:04:04;96946.84;;;14.19;100.00
49515;BME280;35415;47.870;16.058;2023-06-10T00:06:43;96995.84;;;14.50;100.00
49515;BME280;35415;47.870;16.058;2023-06-10T00:09:11;96964.91;;;14.24;100.00
49515;BME280;35415;47.870;16.058;2023-06-10T00:11:39;96957.47;;;14.15;100.00
49515;BME280;35415;47.870;16.058;2023-06-10T00:14:07;96956.25;;;14.08;100.00
49515;BME280;35415;47.870;16.058;2023-06-10T00:16:36;97009.00;;;14.38;100.00
49515;BME280;35415;47.870;16.058;2023-06-10T00:19:10;96967.56;;;14.10;100.00
49515;BME280;35415;47.870;16.058;2023-06-10T00:21:46;97019.09;;;14.51;100.00
49515;BME280;35415;47.870;16.058;2023-06-10T00:24:14;96960.34;;;14.05;100.00
49515;BME280;35415;47.870;16.058;2023-06-10T00:26:43;96976.56;;;14.05;100.00
49515;BME280;35415;47.870;16.058;2023-06-10T00:29:11;96963.75;;;13.97;100.00
49515;BME280;35415;47.870;16.058;2023-06-10T00:31:45;96948.47;;;13.88;100.00
49515;BME280;35415;47.870;16.058;2023-06-10T00:34:13;97034.38;;;14.42;100.00
49515;BME280;35415;47.870;16.058;2023-06-10T00:36:45;96975.88;;;14.00;100.00
49515;BME280;35415;47.870;16.058;2023-06-10T00:39:15;96930.63;;;13.73;100.00
49515;BME280;35415;47.870;16.058;2023-06-10T00:41:45;96979.53;;;13.90;100.00
49515;BME280;35415;47.870;16.058;2023-06-10T00:44:12;96974.31;;;13.94;100.00
49515;BME280;35415;47.870;16.058;2023-06-10T00:46:42;97015.38;;;14.14;100.00
49515;BME280;35415;47.870;16.058;2023-06-10T00:49:18;97003.25;;;14.12;100.00
49515;BME280;35415;47.870;16.058;2023-06-10T00:51:49;96991.19;;;14.04;100.00
49515;BME280;35415;47.870;16.058;2023-06-10T00:54:25;97002.09;;;13.99;100.00
49515;BME280;35415;47.870;16.058;2023-06-10T00:56:56;96983.84;;;13.91;100.00
49515;BME280;35415;47.870;16.058;2023-06-10T00:59:24;96962.75;;;13.74;100.00
49515;BME280;35415;47.870;16.058;2023-06-10T01:01:56;96997.00;;;13.98;100.00
49515;BME280;35415;47.870;16.058;2023-06-10T01:04:23;96982.63;;;13.83;100.00
49515;BME280;35415;47.870;16.058;2023-06-10T01:07:00;96993.34;;;13.89;100.00
49515;BME280;35415;47.870;16.058;2023-06-10T01:09:37;96990.03;;;13.78;100.00
49515;BME280;35415;47.870;16.058;2023-06-10T01:12:12;96981.75;;;13.69;100.00
49515;BME280;35415;47.870;16.058;2023-06-10T01:14:40;97037.97;;;14.05;100.00
49515;BME280;35415;47.870;16.058;2023-06-10T01:17:13;96971.38;;;13.58;100.00
49515;BME280;35415;47.870;16.058;2023-06-10T01:19:43;97007.84;;;13.79;100.00
49515;BME280;35415;47.870;16.058;2023-06-10T01:22:15;96983.97;;;13.67;100.00
49515;BME280;35415;47.870;16.058;2023-06-10T01:24:43;96971.91;;;13.60;100.00
49515;BME280;35415;47.870;16.058;2023-06-10T01:27:18;96996.59;;;13.72;100.00
49515;BME280;35415;47.870;16.058;2023-06-10T01:29:53;96973.09;;;13.53;100.00
49515;BME280;35415;47.870;16.058;2023-06-10T01:32:27;97050.47;;;14.01;100.00
49515;BME280;35415;47.870;16.058;2023-06-10T01:34:57;97000.38;;;13.71;100.00
49515;BME280;35415;47.870;16.058;2023-06-10T01:37:27;96997.84;;;13.61;100.00
49515;BME280;35415;47.870;16.058;2023-06-10T01:39:57;97023.47;;;13.82;100.00
49515;BME280;35415;47.870;16.058;2023-06-10T01:42:25;96991.63;;;13.60;100.00
49515;BME280;35415;47.870;16.058;2023-06-10T01:44:53;97000.03;;;13.59;100.00
49515;BME280;35415;47.870;16.058;2023-06-10T01:47:20;96962.00;;;13.36;100.00
49515;BME280;35415;47.870;16.058;2023-06-10T01:49:48;97039.81;;;13.91;100.00
49515;BME280;35415;47.870;16.058;2023-06-10T01:52:21;97009.88;;;13.68;100.00
49515;BME280;35415;47.870;16.058;2023-06-10T01:54:50;96992.59;;;13.50;100.00
49515;BME280;35415;47.870;16.058;2023-06-10T01:57:26;96943.22;;;13.26;100.00
49515;BME280;35415;47.870;16.058;2023-06-10T01:59:54;96986.09;;;13.51;100.00
49515;BME280;35415;47.870;16.058;2023-06-10T02:02:21;96984.03;;;13.43;100.00
49515;BME280;35415;47.870;16.058;2023-06-10T02:04:50;96980.09;;;13.36;100.00
49515;BME280;35415;47.870;16.058;2023-06-10T02:07:18;96993.69;;;13.49;100.00
49515;BME280;35415;47.870;16.058;2023-06-10T02:09:53;96971.50;;;13.34;100.00
49515;BME280;35415;47.870;16.058;2023-06-10T02:12:20;97020.41;;;13.70;100.00
49515;BME280;35415;47.870;16.058;2023-06-10T02:14:48;97047.00;;;13.81;100.00
49515;BME280;35415;47.870;16.058;2023-06-10T02:17:16;96987.81;;;13.42;100.00
49515;BME280;35415;47.870;16.058;2023-06-10T02:19:43;97011.13;;;13.57;100.00
49515;BME280;35415;47.870;16.058;2023-06-10T02:22:20;96978.72;;;13.38;100.00
49515;BME280;35415;47.870;16.058;2023-06-10T02:24:50;96949.00;;;13.19;100.00
49515;BME280;35415;47.870;16.058;2023-06-10T02:27:18;97006.09;;;13.50;100.00
49515;BME280;35415;47.870;16.058;2023-06-10T02:29:46;97037.41;;;13.70;100.00
49515;BME280;35415;47.870;16.058;2023-06-10T02:32:19;97002.09;;;13.48;100.00
49515;BME280;35415;47.870;16.058;2023-06-10T02:34:49;96980.41;;;13.34;100.00
49515;BME280;35415;47.870;16.058;2023-06-10T02:37:20;96994.56;;;13.45;100.00
49515;BME280;35415;47.870;16.058;2023-06-10T02:39:47;97001.06;;;13.44;100.00
49515;BME280;35415;47.870;16.058;2023-06-10T02:42:17;97029.91;;;13.67;100.00
49515;BME280;35415;47.870;16.058;2023-06-10T02:44:49;96991.88;;;13.45;100.00
49515;BME280;35415;47.870;16.058;2023-06-10T02:47:17;96998.94;;;13.41;100.00
49515;BME280;35415;47.870;16.058;2023-06-10T02:49:45;97032.00;;;13.70;100.00
49515;BME280;35415;47.870;16.058;2023-06-10T02:52:12;96984.50;;;13.32;100.00
49515;BME280;35415;47.870;16.058;2023-06-10T02:54:40;96974.81;;;13.25;100.00
49515;BME280;35415;47.870;16.058;2023-06-10T02:57:10;96987.78;;;13.29;100.00
49515;BME280;35415;47.870;16.058;2023-06-10T02:59:44;96966.63;;;13.12;100.00
49515;BME280;35415;47.870;16.058;2023-06-10T03:02:12;97047.50;;;13.83;100.00
49515;BME280;35415;47.870;16.058;2023-06-10T03:04:41;97056.63;;;13.69;100.00
49515;BME280;35415;47.870;16.058;2023-06-10T03:07:10;96936.78;;;13.03;100.00
49515;BME280;35415;47.870;16.058;2023-06-10T03:09:38;97000.81;;;13.40;100.00
49515;BME280;35415;47.870;16.058;2023-06-10T03:12:07;96977.81;;;13.24;100.00
49515;BME280;35415;47.870;16.058;2023-06-10T03:14:34;97006.22;;;13.40;100.00
49515;BME280;35415;47.870;16.058;2023-06-10T03:17:05;97038.22;;;13.71;100.00
49515;BME280;35415;47.870;16.058;2023-06-10T03:19:33;97001.63;;;13.41;100.00
49515;BME280;35415;47.870;16.058;2023-06-10T03:22:08;96964.31;;;13.24;100.00
49515;BME280;35415;47.870;16.058;2023-06-10T03:24:36;96988.41;;;13.39;100.00
49515;BME280;35415;47.870;16.058;2023-06-10T03:27:08;96956.22;;;13.24;100.00
49515;BME280;35415;47.870;16.058;2023-06-10T03:29:36;97019.38;;;13.66;100.00
49515;BME280;35415;47.870;16.058;2023-06-10T03:32:14;97033.84;;;13.75;100.00
49515;BME280;35415;47.870;16.058;2023-06-10T03:34:42;96986.47;;;13.45;100.00
49515;BME280;35415;47.870;16.058;2023-06-10T03:37:10;97022.31;;;13.69;100.00
49515;BME280;35415;47.870;16.058;2023-06-10T03:39:38;96986.97;;;13.47;100.00
49515;BME280;35415;47.870;16.058;2023-06-10T03:42:06;97000.91;;;13.54;100.00
49515;BME280;35415;47.870;16.058;2023-06-10T03:44:35;97011.38;;;13.61;100.00
49515;BME280;35415;47.870;16.058;2023-06-10T03:47:08;97054.78;;;14.02;100.00
49515;BME280;35415;47.870;16.058;2023-06-10T03:49:35;96994.41;;;13.55;100.00
49515;BME280;35415;47.870;16.058;2023-06-10T03:52:04;96998.19;;;13.54;100.00
49515;BME280;35415;47.870;16.058;2023-06-10T03:54:31;97016.59;;;13.71;100.00
49515;BME280;35415;47.870;16.058;2023-06-10T03:57:01;96999.59;;;13.51;100.00
49515;BME280;35415;47.870;16.058;2023-06-10T03:59:29;97036.53;;;13.75;100.00
49515;BME280;35415;47.870;16.058;2023-06-10T04:01:56;96999.50;;;13.57;100.00
49515;BME280;35415;47.870;16.058;2023-06-10T04:04:29;96981.28;;;13.48;100.00
49515;BME280;35415;47.870;16.058;2023-06-10T04:06:56;96980.09;;;13.54;100.00
49515;BME280;35415;47.870;16.058;2023-06-10T04:09:25;97031.06;;;13.80;100.00
49515;BME280;35415;47.870;16.058;2023-06-10T04:11:55;97043.47;;;14.00;100.00
49515;BME280;35415;47.870;16.058;2023-06-10T04:14:42;96987.31;;;13.59;100.00
49515;BME280;35415;47.870;16.058;2023-06-10T04:17:16;96996.59;;;13.72;100.00
49515;BME280;35415;47.870;16.058;2023-06-10T04:19:47;97021.47;;;13.88;100.00
49515;BME280;35415;47.870;16.058;2023-06-10T04:22:16;97026.75;;;13.98;100.00
49515;BME280;35415;47.870;16.058;2023-06-10T04:24:45;97021.94;;;13.95;100.00
49515;BME280;35415;47.870;16.058;2023-06-10T04:27:13;97015.97;;;13.93;100.00
49515;BME280;35415;47.870;16.058;2023-06-10T04:29:41;97056.38;;;14.22;100.00
49515;BME280;35415;47.870;16.058;2023-06-10T04:32:09;96989.94;;;13.83;100.00
49515;BME280;35415;47.870;16.058;2023-06-10T04:34:43;97010.81;;;13.96;100.00
49515;BME280;35415;47.870;16.058;2023-06-10T04:37:16;97038.53;;;14.21;100.00
49515;BME280;35415;47.870;16.058;2023-06-10T04:39:45;97009.31;;;14.04;100.00
49515;BME280;35415;47.870;16.058;2023-06-10T04:42:16;96976.91;;;13.85;100.00
49515;BME280;35415;47.870;16.058;2023-06-10T04:44:46;97009.47;;;14.12;100.00
49515;BME280;35415;47.870;16.058;2023-06-10T04:47:13;97060.88;;;14.45;100.00
49515;BME280;35415;47.870;16.058;2023-06-10T04:49:42;97008.13;;;14.10;100.00
49515;BME280;35415;47.870;16.058;2023-06-10T04:52:10;97055.38;;;14.50;100.00
49515;BME280;35415;47.870;16.058;2023-06-10T04:54:41;97048.44;;;14.44;100.00
49515;BME280;35415;47.870;16.058;2023-06-10T04:57:11;97035.47;;;14.41;100.00
49515;BME280;35415;47.870;16.058;2023-06-10T04:59:41;96974.66;;;14.06;100.00
49515;BME280;35415;47.870;16.058;2023-06-10T05:02:11;97062.53;;;14.73;100.00
49515;BME280;35415;47.870;16.058;2023-06-10T05:04:39;96994.16;;;14.22;100.00
49515;BME280;35415;47.870;16.058;2023-06-10T05:07:06;97022.25;;;14.39;100.00
49515;BME280;35415;47.870;16.058;2023-06-10T05:09:34;96994.28;;;14.30;100.00
49515;BME280;35415;47.870;16.058;2023-06-10T05:12:08;97048.69;;;14.61;100.00
49515;BME280;35415;47.870;16.058;2023-06-10T05:14:36;97077.50;;;14.85;100.00
49515;BME280;35415;47.870;16.058;2023-06-10T05:17:07;97023.72;;;14.51;100.00
49515;BME280;35415;47.870;16.058;2023-06-10T05:19:35;97006.38;;;14.52;100.00
49515;BME280;35415;47.870;16.058;2023-06-10T05:22:06;97013.19;;;14.63;100.00
49515;BME280;35415;47.870;16.058;2023-06-10T05:24:33;97050.31;;;14.90;100.00
49515;BME280;35415;47.870;16.058;2023-06-10T05:27:01;97008.50;;;14.68;100.00
49515;BME280;35415;47.870;16.058;2023-06-10T05:29:34;97031.03;;;14.91;100.00
49515;BME280;35415;47.870;16.058;2023-06-10T05:32:02;97029.13;;;14.92;100.00
49515;BME280;35415;47.870;16.058;2023-06-10T05:34:30;97008.88;;;14.89;100.00
49515;BME280;35415;47.870;16.058;2023-06-10T05:37:00;97050.50;;;15.21;100.00
49515;BME280;35415;47.870;16.058;2023-06-10T05:39:28;97002.78;;;14.97;100.00
49515;BME280;35415;47.870;16.058;2023-06-10T05:41:55;97036.16;;;15.20;100.00
49515;BME280;35415;47.870;16.058;2023-06-10T05:44:24;96996.63;;;15.05;100.00
49515;BME280;35415;47.870;16.058;2023-06-10T05:46:54;97046.97;;;15.48;100.00
49515;BME280;35415;47.870;16.058;2023-06-10T05:49:22;97050.78;;;15.60;100.00
49515;BME280;35415;47.870;16.058;2023-06-10T05:51:54;97001.84;;;15.29;100.00
49515;BME280;35415;47.870;16.058;2023-06-10T05:54:38;96958.81;;;15.14;100.00
49515;BME280;35415;47.870;16.058;2023-06-10T05:57:07;97003.50;;;15.53;100.00
49515;BME280;35415;47.870;16.058;2023-06-10T05:59:36;97062.53;;;15.92;100.00
49515;BME280;35415;47.870;16.058;2023-06-10T06:12:35;97018.59;;;16.04;100.00
49515;BME280;35415;47.870;16.058;2023-06-10T06:15:03;97022.72;;;16.23;100.00
49515;BME280;35415;47.870;16.058;2023-06-10T06:17:30;97057.41;;;16.58;100.00
49515;BME280;35415;47.870;16.058;2023-06-10T06:19:57;97025.47;;;16.54;100.00
49515;BME280;35415;47.870;16.058;2023-06-10T06:22:25;97035.28;;;16.64;100.00
49515;BME280;35415;47.870;16.058;2023-06-10T06:24:52;97046.25;;;16.81;100.00
49515;BME280;35415;47.870;16.058;2023-06-10T06:27:20;97059.09;;;16.98;100.00
49515;BME280;35415;47.870;16.058;2023-06-10T06:30:02;97032.53;;;16.95;100.00
49515;BME280;35415;47.870;16.058;2023-06-10T06:32:30;97026.50;;;16.98;100.00
49515;BME280;35415;47.870;16.058;2023-06-10T06:34:57;97036.09;;;17.04;100.00
49515;BME280;35415;47.870;16.058;2023-06-10T06:37:27;96999.31;;;16.98;100.00
49515;BME280;35415;47.870;16.058;2023-06-10T06:39:55;97063.53;;;17.42;100.00
49515;BME280;35415;47.870;16.058;2023-06-10T06:42:23;96998.53;;;17.06;100.00
49515;BME280;35415;47.870;16.058;2023-06-10T06:44:52;97061.50;;;17.57;100.00
49515;BME280;35415;47.870;16.058;2023-06-10T06:47:20;97017.16;;;17.30;100.00
49515;BME280;35415;47.870;16.058;2023-06-10T06:49:47;97018.44;;;17.33;100.00
49515;BME280;35415;47.870;16.058;2023-06-10T06:52:16;97059.94;;;17.64;100.00
49515;BME280;35415;47.870;16.058;2023-06-10T06:54:47;97038.31;;;17.59;100.00
49515;BME280;35415;47.870;16.058;2023-06-10T06:57:21;97007.09;;;17.39;100.00
49515;BME280;35415;47.870;16.058;2023-06-10T06:59:49;97022.94;;;17.63;100.00
49515;BME280;35415;47.870;16.058;2023-06-10T07:02:18;97044.91;;;17.76;100.00
49515;BME280;35415;47.870;16.058;2023-06-10T07:04:47;97040.44;;;17.71;100.00
49515;BME280;35415;47.870;16.058;2023-06-10T07:07:24;97052.13;;;17.89;100.00
49515;BME280;35415;47.870;16.058;2023-06-10T07:10:11;97079.97;;;18.12;100.00
49515;BME280;35415;47.870;16.058;2023-06-10T07:12:42;97041.72;;;17.91;100.00
49515;BME280;35415;47.870;16.058;2023-06-10T07:15:16;97024.09;;;17.80;100.00
49515;BME280;35415;47.870;16.058;2023-06-10T07:17:49;97020.59;;;17.79;100.00
49515;BME280;35415;47.870;16.058;2023-06-10T07:20:18;97059.81;;;18.04;100.00
49515;BME280;35415;47.870;16.058;2023-06-10T07:22:53;97026.50;;;17.90;100.00
49515;BME280;35415;47.870;16.058;2023-06-10T07:25:28;97006.97;;;17.79;100.00
49515;BME280;35415;47.870;16.058;2023-06-10T07:28:00;97049.09;;;18.08;100.00
49515;BME280;35415;47.870;16.058;2023-06-10T07:30:32;97057.41;;;18.20;100.00
49515;BME280;35415;47.870;16.058;2023-06-10T07:33:02;97000.59;;;17.84;100.00
49515;BME280;35415;47.870;16.058;2023-06-10T07:35:33;97034.66;;;18.07;100.00
49515;BME280;35415;47.870;16.058;2023-06-10T07:38:03;97038.03;;;18.04;100.00
49515;BME280;35415;47.870;16.058;2023-06-10T07:40:31;97042.03;;;18.15;100.00
49515;BME280;35415;47.870;16.058;2023-06-10T07:43:01;97056.59;;;18.28;100.00
49515;BME280;35415;47.870;16.058;2023-06-10T07:45:30;97055.00;;;18.36;100.00
49515;BME280;35415;47.870;16.058;2023-06-10T07:51:03;97040.09;;;18.33;100.00
49515;BME280;35415;47.870;16.058;2023-06-10T07:53:30;97013.06;;;18.11;100.00
49515;BME280;35415;47.870;16.058;2023-06-10T07:55:59;97058.66;;;18.40;100.00
49515;BME280;35415;47.870;16.058;2023-06-10T07:58:31;97020.56;;;18.22;100.00
49515;BME280;35415;47.870;16.058;2023-06-10T08:01:06;97045.03;;;18.40;100.00
49515;BME280;35415;47.870;16.058;2023-06-10T08:03:37;97040.72;;;18.39;100.00
49515;BME280;35415;47.870;16.058;2023-06-10T08:06:06;97041.81;;;18.46;100.00
49515;BME280;35415;47.870;16.058;2023-06-10T08:08:34;97038.94;;;18.51;100.00
49515;BME280;35415;47.870;16.058;2023-06-10T08:11:07;97023.56;;;18.47;100.00
49515;BME280;35415;47.870;16.058;2023-06-10T08:13:34;97094.13;;;18.95;100.00
49515;BME280;35415;47.870;16.058;2023-06-10T08:16:05;97041.31;;;18.70;100.00
49515;BME280;35415;47.870;16.058;2023-06-10T08:18:33;97018.56;;;18.57;100.00
49515;BME280;35415;47.870;16.058;2023-06-10T08:21:07;97049.13;;;18.80;100.00
49515;BME280;35415;47.870;16.058;2023-06-10T08:23:36;97016.34;;;18.68;100.00
49515;BME280;35415;47.870;16.058;2023-06-10T08:26:04;97088.59;;;19.21;100.00
49515;BME280;35415;47.870;16.058;2023-06-10T08:28:33;97101.25;;;19.26;100.00
49515;BME280;35415;47.870;16.058;2023-06-10T08:31:00;97075.31;;;19.11;100.00
49515;BME280;35415;47.870;16.058;2023-06-10T08:33:27;97093.19;;;19.29;100.00
49515;BME280;35415;47.870;16.058;2023-06-10T08:35:55;97048.75;;;18.99;100.00
49515;BME280;35415;47.870;16.058;2023-06-10T08:38:24;97044.13;;;19.00;100.00
49515;BME280;35415;47.870;16.058;2023-06-10T08:40:56;97061.53;;;19.16;100.00
49515;BME280;35415;47.870;16.058;2023-06-10T08:43:31;97080.19;;;19.35;100.00
49515;BME280;35415;47.870;16.058;2023-06-10T08:46:01;97077.00;;;19.33;100.00
49515;BME280;35415;47.870;16.058;2023-06-10T08:48:30;97027.72;;;19.08;100.00
49515;BME280;35415;47.870;16.058;2023-06-10T08:50:58;97092.94;;;19.51;100.00
49515;BME280;35415;47.870;16.058;2023-06-10T08:53:30;97062.38;;;19.37;100.00
49515;BME280;35415;47.870;16.058;2023-06-10T08:56:02;97020.19;;;19.05;100.00
49515;BME280;35415;47.870;16.058;2023-06-10T08:58:32;97085.22;;;19.53;100.00
49515;BME280;35415;47.870;16.058;2023-06-10T09:01:06;97096.91;;;19.63;100.00
49515;BME280;35415;47.870;16.058;2023-06-10T09:03:34;97065.84;;;19.46;100.00
49515;BME280;35415;47.870;16.058;2023-06-10T09:06:05;97053.72;;;19.35;100.00
49515;BME280;35415;47.870;16.058;2023-06-10T09:08:35;97084.72;;;19.60;100.00
49515;BME280;35415;47.870;16.058;2023-06-10T09:11:03;97064.41;;;19.49;100.00
49515;BME280;35415;47.870;16.058;2023-06-10T09:13:30;97078.13;;;19.61;100.00
49515;BME280;35415;47.870;16.058;2023-06-10T09:15:57;97084.06;;;19.63;100.00
49515;BME280;35415;47.870;16.058;2023-06-10T09:18:27;97070.94;;;19.57;100.00
49515;BME280;35415;47.870;16.058;2023-06-10T09:20:59;97086.75;;;19.72;100.00
49515;BME280;35415;47.870;16.058;2023-06-10T09:23:27;97038.28;;;19.39;100.00
49515;BME280;35415;47.870;16.058;2023-06-10T09:25:58;97024.06;;;19.34;100.00
49515;BME280;35415;47.870;16.058;2023-06-10T09:28:26;97051.22;;;19.51;100.00
49515;BME280;35415;47.870;16.058;2023-06-10T09:31:02;97086.69;;;19.80;100.00
49515;BME280;35415;47.870;16.058;2023-06-10T09:33:31;97053.97;;;19.51;100.00
49515;BME280;35415;47.870;16.058;2023-06-10T09:36:01;97055.38;;;19.57;100.00
49515;BME280;35415;47.870;16.058;2023-06-10T09:38:30;97084.81;;;19.72;100.00
49515;BME280;35415;47.870;16.058;2023-06-10T09:41:01;97060.84;;;19.57;100.00
49515;BME280;35415;47.870;16.058;2023-06-10T09:43:44;97042.41;;;19.45;100.00
49515;BME280;35415;47.870;16.058;2023-06-10T09:46:20;97108.59;;;19.93;100.00
49515;BME280;35415;47.870;16.058;2023-06-10T09:48:48;97034.56;;;19.44;100.00
49515;BME280;35415;47.870;16.058;2023-06-10T09:51:17;97026.06;;;19.45;100.00
49515;BME280;35415;47.870;16.058;2023-06-10T09:53:48;97063.66;;;19.69;100.00
49515;BME280;35415;47.870;16.058;2023-06-10T09:56:22;97097.34;;;19.94;100.00
49515;BME280;35415;47.870;16.058;2023-06-10T09:58:59;97103.03;;;20.10;100.00
49515;BME280;35415;47.870;16.058;2023-06-10T10:01:27;97100.09;;;19.94;100.00
49515;BME280;35415;47.870;16.058;2023-06-10T10:03:54;97057.28;;;19.65;100.00
49515;BME280;35415;47.870;16.058;2023-06-10T10:06:24;97070.09;;;19.65;100.00
49515;BME280;35415;47.870;16.058;2023-06-10T10:08:55;97069.44;;;19.68;100.00
49515;BME280;35415;47.870;16.058;2023-06-10T10:11:24;97099.03;;;19.87;100.00
49515;BME280;35415;47.870;16.058;2023-06-10T10:13:53;97061.91;;;19.65;100.00
49515;BME280;35415;47.870;16.058;2023-06-10T10:16:22;97086.50;;;19.86;100.00
49515;BME280;35415;47.870;16.058;2023-06-10T10:19:05;97032.13;;;19.51;100.00
49515;BME280;35415;47.870;16.058;2023-06-10T10:21:38;97079.16;;;19.77;100.00
49515;BME280;35415;47.870;16.058;2023-06-10T10:24:16;97057.28;;;19.65;100.00
49515;BME280;35415;47.870;16.058;2023-06-10T10:26:50;97053.69;;;19.73;100.00
49515;BME280;35415;47.870;16.058;2023-06-10T10:29:23;97073.03;;;19.80;100.00
49515;BME280;35415;47.870;16.058;2023-06-10T10:31:52;97064.25;;;19.75;100.00
49515;BME280;35415;47.870;16.058;2023-06-10T10:34:27;97066.19;;;19.74;100.00
49515;BME280;35415;47.870;16.058;2023-06-10T10:36:58;97076.19;;;19.91;100.00
49515;BME280;35415;47.870;16.058;2023-06-10T10:39:29;97038.31;;;19.69;100.00
49515;BME280;35415;47.870;16.058;2023-06-10T10:42:00;97075.00;;;20.01;100.00
49515;BME280;35415;47.870;16.058;2023-06-10T10:44:29;97076.25;;;20.03;100.00
49515;BME280;35415;47.870;16.058;2023-06-10T10:47:02;97015.06;;;19.63;100.00
49515;BME280;35415;47.870;16.058;2023-06-10T10:49:34;97041.56;;;19.83;100.00
49515;BME280;35415;47.870;16.058;2023-06-10T10:52:14;97084.19;;;20.17;100.00
49515;BME280;35415;47.870;16.058;2023-06-10T10:54:46;97032.84;;;19.90;100.00
49515;BME280;35415;47.870;16.058;2023-06-10T10:57:28;97064.72;;;20.19;100.00
49515;BME280;35415;47.870;16.058;2023-06-10T10:59:59;97048.41;;;20.10;100.00
49515;BME280;35415;47.870;16.058;2023-06-10T11:02:36;97084.38;;;20.33;100.00
49515;BME280;35415;47.870;16.058;2023-06-10T11:05:05;97095.09;;;20.38;100.00
49515;BME280;35415;47.870;16.058;2023-06-10T11:07:35;97034.50;;;20.03;100.00
49515;BME280;35415;47.870;16.058;2023-06-10T11:25:38;96981.41;;;20.12;100.00
49515;BME280;35415;47.870;16.058;2023-06-10T11:28:17;96986.56;;;20.26;100.00
49515;BME280;35415;47.870;16.058;2023-06-10T11:31:03;97034.97;;;20.59;100.00
49515;BME280;35415;47.870;16.058;2023-06-10T11:33:31;96981.38;;;20.33;100.00
49515;BME280;35415;47.870;16.058;2023-06-10T11:35:59;97037.84;;;20.75;100.00
49515;BME280;35415;47.870;16.058;2023-06-10T11:38:45;96979.13;;;20.48;100.00
49515;BME280;35415;47.870;16.058;2023-06-10T11:41:19;97050.28;;;20.96;100.00
49515;BME280;35415;47.870;16.058;2023-06-10T11:43:52;97037.75;;;20.95;100.00
49515;BME280;35415;47.870;16.058;2023-06-10T11:46:29;96984.91;;;20.67;100.00
49515;BME280;35415;47.870;16.058;2023-06-10T11:49:03;96998.34;;;20.84;100.00
49515;BME280;35415;47.870;16.058;2023-06-10T11:51:36;96962.00;;;20.71;100.00
49515;BME280;35415;47.870;16.058;2023-06-10T11:54:08;97004.63;;;21.09;100.00
49515;BME280;35415;47.870;16.058;2023-06-10T11:56:38;97023.13;;;21.37;100.00
49515;BME280;35415;47.870;16.058;2023-06-10T11:59:06;96958.91;;;20.97;100.00
49515;BME280;35415;47.870;16.058;2023-06-10T12:01:35;96985.47;;;21.21;100.00
49515;BME280;35415;47.870;16.058;2023-06-10T12:04:09;96980.34;;;21.20;100.00
49515;BME280;35415;47.870;16.058;2023-06-10T12:06:44;96969.41;;;21.20;99.44
49515;BME280;35415;47.870;16.058;2023-06-10T12:09:17;96978.53;;;21.36;98.44
49515;BME280;35415;47.870;16.058;2023-06-10T12:11:49;97003.13;;;21.60;98.74
49515;BME280;35415;47.870;16.058;2023-06-10T12:14:50;96985.44;;;21.58;99.33
49515;BME280;35415;47.870;16.058;2023-06-10T12:17:20;97015.28;;;21.87;100.00
49515;BME280;35415;47.870;16.058;2023-06-10T12:19:49;96984.19;;;21.68;99.71
49515;BME280;35415;47.870;16.058;2023-06-10T12:22:16;96982.69;;;21.70;100.00
49515;BME280;35415;47.870;16.058;2023-06-10T12:24:46;96931.78;;;21.41;100.00
49515;BME280;35415;47.870;16.058;2023-06-10T12:27:27;96967.97;;;21.62;100.00
49515;BME280;35415;47.870;16.058;2023-06-10T12:29:56;96981.53;;;21.71;100.00
49515;BME280;35415;47.870;16.058;2023-06-10T12:32:35;96991.53;;;21.79;100.00
49515;BME280;35415;47.870;16.058;2023-06-10T12:35:06;97017.16;;;21.99;100.00
49515;BME280;35415;47.870;16.058;2023-06-10T12:37:33;96983.78;;;21.81;100.00
49515;BME280;35415;47.870;16.058;2023-06-10T12:40:03;96953.28;;;21.67;100.00
49515;BME280;35415;47.870;16.058;2023-06-10T12:42:36;96929.75;;;21.66;100.00
49515;BME280;35415;47.870;16.058;2023-06-10T12:45:05;96912.91;;;21.64;100.00
49515;BME280;35415;47.870;16.058;2023-06-10T12:47:36;96987.75;;;22.24;97.44
49515;BME280;35415;47.870;16.058;2023-06-10T12:50:05;96999.81;;;22.35;97.27
49515;BME280;35415;47.870;16.058;2023-06-10T12:52:33;96923.13;;;22.07;98.22
49515;BME280;35415;47.870;16.058;2023-06-10T12:55:01;96923.75;;;22.16;100.00
49515;BME280;35415;47.870;16.058;2023-06-10T12:57:29;96948.91;;;22.34;96.66
49515;BME280;35415;47.870;16.058;2023-06-10T12:59:59;96930.25;;;22.40;94.95
49515;BME280;35415;47.870;16.058;2023-06-10T13:02:29;96928.13;;;22.49;97.83
49515;BME280;35415;47.870;16.058;2023-06-10T13:05:05;96971.44;;;22.87;100.00
49515;BME280;35415;47.870;16.058;2023-06-10T13:07:32;96966.75;;;22.88;94.97
49515;BME280;35415;47.870;16.058;2023-06-10T13:10:00;96919.31;;;22.71;94.92
49515;BME280;35415;47.870;16.058;2023-06-10T13:12:33;96905.50;;;22.84;96.86
49515;BME280;35415;47.870;16.058;2023-06-10T13:15:04;96948.66;;;23.18;100.00
49515;BME280;35415;47.870;16.058;2023-06-10T13:17:32;96900.47;;;22.86;88.82
49515;BME280;35415;47.870;16.058;2023-06-10T13:20:01;96940.94;;;23.24;88.96
49515;BME280;35415;47.870;16.058;2023-06-10T13:22:31;96931.25;;;23.30;93.04
49515;BME280;35415;47.870;16.058;2023-06-10T13:25:02;96934.97;;;23.37;92.78
49515;BME280;35415;47.870;16.058;2023-06-10T13:27:32;96896.66;;;23.25;92.74